00:06
Airports
History
Links
Donate
Help keep this website running!
PayPal
Bitcoin
This page is community maintained. The information is intended for PC simulator navigation or reference.
Always use approved charts for navigation.
CYAY
ST ANTHONY
ST ANTHONY (CYAY)
Cook's Harbour, Newfoundland and Labrador, Canada
(U)
Lat/Lng:51° 23' 30.84" N / 56° 4' 59.33" W
51.3919 / -56.083147
Elevation:108'ft / 33mMSL
ID / ICAO:CYAY
Runways:1
Longest:10-28
Asphalt 1,223m / 4,013ft
METAR23:46 GMT 2017-10-16
Altimeter: 29.79
Visibility: 9.0 statute miles
Wind: 5 knots (from 300°)
Temp: 2°c / 36°f
Humidity: %

METAR: CYAY 162346Z AUTO 30005KT 9SM SCT023 02/M00 A2979 RMK PRESRR SLP093

(Powered by phpweather)
Airport Radio Frequencies
AWOS1: 118.65
CTAF: 122.3
Nearby VORs <50NM
Nearby NDBs
Runway 10 / 28
Dimensions:1223.1 x 30.5m 4013' x 100'ft
Surface:Asphalt
Edge Lights:Medium intensity
Runway 10 [A]Runway 28 [B]
Heading:079°TH 259°TH
Lat:
Lng:
51° 23' 27.35"N
56° 5' 30.39"W
51° 23' 34.33"N
56° 4' 28.27"W
ALS:MALSMALS
TDZ:Yes, lighted
User Notes and Comments
51° 23' 30.84" N / 56° 4' 59.33" W
Distance To
Airport ID:
Nearby Airports
(U) LOURDES DE BLANC SABLON 47.7 NM
CYBX ( WX ) W 274°
(C) Marys Harbour 63.7 NM
CYMH N
4 Fox Harbour 70.0 NM
CCK4 NNE 14°
4 Williams Harbour 82.2 NM
CCA6 N
4 Charlottetown 94.9 NM
CCH4 N 359°
(U) ST AUGUSTIN 111.9 NM
CYIF W 263°
4 Black Trickle 144.1 NM
CCE4 N
VFR Chart
Flight Planning at SkyVector.com